MSR905 HECA-HESH
Flight info
| Callsign | MSR905 |
|---|---|
| Flight time | N/A |
| Altitude | 11000 |
| Route | CVO L677 MENLI N697 SISIK V603 DASOT DCT SHM |
| Aircraft | B738/M-SDE2E3FGHIRWXY/LB1 |
Departure
| Time | 2026-05-01 09:19 |
|---|---|
| Airport | Cairo International Airport (HECA) |
Arrival
| Time | N/A |
|---|---|
| Airport | Sharm El Sheikh International Airport (HESH) |
| Time | Latitude | Longitude | Altitude | Speed | Heading |
|---|---|---|---|---|---|
| 2026-05-01 08:59 | 30.10717 | 31.39536 | 340 ft | 0 kts | 78° |
| 2026-05-01 09:12 | 30.10716 | 31.39527 | 340 ft | 2 kts | 78° |
| 2026-05-01 09:12 | 30.10713 | 31.39511 | 340 ft | 2 kts | 79° |
| 2026-05-01 09:12 | 30.10710 | 31.39493 | 340 ft | 2 kts | 78° |
| 2026-05-01 09:13 | 30.10707 | 31.39476 | 340 ft | 2 kts | 79° |
| 2026-05-01 09:13 | 30.10705 | 31.39463 | 340 ft | 1 kts | 101° |
| 2026-05-01 09:13 | 30.10710 | 31.39455 | 339 ft | 1 kts | 158° |
| 2026-05-01 09:13 | 30.10715 | 31.39454 | 339 ft | 1 kts | 169° |
| 2026-05-01 09:14 | 30.10718 | 31.39453 | 339 ft | 0 kts | 166° |
| 2026-05-01 09:14 | 30.10717 | 31.39453 | 339 ft | 1 kts | 166° |
| 2026-05-01 09:15 | 30.10692 | 31.39461 | 340 ft | 9 kts | 164° |
| 2026-05-01 09:15 | 30.10616 | 31.39515 | 346 ft | 15 kts | 94° |
| 2026-05-01 09:15 | 30.10648 | 31.39704 | 344 ft | 32 kts | 74° |
| 2026-05-01 09:15 | 30.10717 | 31.39998 | 349 ft | 34 kts | 70° |
| 2026-05-01 09:16 | 30.10738 | 31.40133 | 349 ft | 11 kts | 66° |
| 2026-05-01 09:16 | 30.10874 | 31.40161 | 341 ft | 29 kts | 32° |
| 2026-05-01 09:16 | 30.10939 | 31.40390 | 352 ft | 32 kts | 113° |
| 2026-05-01 09:17 | 30.10575 | 31.40070 | 363 ft | 48 kts | 229° |
| 2026-05-01 09:17 | 30.10338 | 31.39757 | 364 ft | 51 kts | 228° |
| 2026-05-01 09:17 | 30.10014 | 31.39753 | 386 ft | 23 kts | 110° |
| 2026-05-01 09:18 | 30.10027 | 31.39888 | 385 ft | 4 kts | 47° |
| 2026-05-01 09:18 | 30.10111 | 31.40001 | 384 ft | 54 kts | 49° |
| 2026-05-01 09:19 | 30.11253 | 31.41525 | 400 ft | 184 kts | 48° |
| 2026-05-01 09:19 | 30.12081 | 31.42660 | 1147 ft | 185 kts | 60° |
| 2026-05-01 09:19 | 30.12383 | 31.44170 | 1440 ft | 223 kts | 96° |
| 2026-05-01 09:20 | 30.10369 | 31.47033 | 3293 ft | 230 kts | 140° |
| 2026-05-01 09:20 | 30.08291 | 31.49425 | 5511 ft | 199 kts | 133° |
| 2026-05-01 09:21 | 30.06322 | 31.51862 | 6445 ft | 228 kts | 132° |
| 2026-05-01 09:21 | 30.05191 | 31.53279 | 6874 ft | 247 kts | 132° |
| 2026-05-01 09:21 | 30.02626 | 31.56495 | 7468 ft | 295 kts | 132° |
| 2026-05-01 09:22 | 29.99617 | 31.60265 | 7988 ft | 341 kts | 132° |
| 2026-05-01 09:22 | 29.96174 | 31.64575 | 8714 ft | 374 kts | 132° |
| 2026-05-01 09:23 | 29.94417 | 31.66774 | 9415 ft | 379 kts | 133° |
| 2026-05-01 09:23 | 29.90920 | 31.71148 | 10793 ft | 385 kts | 133° |
| 2026-05-01 09:24 | 29.88064 | 31.74718 | 11002 ft | 385 kts | 133° |
| 2026-05-01 09:24 | 29.82213 | 31.82023 | 11001 ft | 384 kts | 133° |
| 2026-05-01 09:25 | 29.78611 | 31.86826 | 10985 ft | 385 kts | 121° |
| 2026-05-01 09:25 | 29.77468 | 31.90433 | 11001 ft | 385 kts | 103° |
| 2026-05-01 09:26 | 29.75204 | 32.00888 | 10998 ft | 385 kts | 104° |
| 2026-05-01 09:26 | 29.74498 | 32.04076 | 11001 ft | 385 kts | 104° |
| 2026-05-01 09:27 | 29.73172 | 32.10038 | 10999 ft | 385 kts | 104° |
| 2026-05-01 09:27 | 29.72508 | 32.13016 | 10999 ft | 385 kts | 104° |
| 2026-05-01 09:27 | 29.71841 | 32.16008 | 11000 ft | 385 kts | 104° |
| 2026-05-01 09:28 | 29.71168 | 32.19016 | 11000 ft | 385 kts | 104° |
| 2026-05-01 09:28 | 29.70505 | 32.21979 | 10999 ft | 385 kts | 104° |
| 2026-05-01 09:28 | 29.69835 | 32.24966 | 10999 ft | 385 kts | 104° |
| 2026-05-01 09:28 | 29.69159 | 32.27980 | 11000 ft | 385 kts | 104° |
| 2026-05-01 09:29 | 29.67825 | 32.33917 | 10999 ft | 385 kts | 104° |
| 2026-05-01 09:29 | 29.67154 | 32.36897 | 11000 ft | 385 kts | 104° |
| 2026-05-01 09:30 | 29.65810 | 32.42855 | 10999 ft | 385 kts | 104° |
| 2026-05-01 09:30 | 29.65223 | 32.45456 | 10999 ft | 385 kts | 104° |
| 2026-05-01 09:30 | 29.63794 | 32.51770 | 11000 ft | 385 kts | 104° |
| 2026-05-01 09:31 | 29.63109 | 32.54792 | 10999 ft | 385 kts | 104° |
| 2026-05-01 09:31 | 29.62432 | 32.57776 | 10999 ft | 385 kts | 104° |
| 2026-05-01 09:31 | 29.61077 | 32.63737 | 11000 ft | 385 kts | 104° |
| 2026-05-01 09:32 | 29.60396 | 32.66687 | 10998 ft | 385 kts | 107° |
| 2026-05-01 09:32 | 29.57729 | 32.71963 | 10989 ft | 386 kts | 128° |
| 2026-05-01 09:32 | 29.56098 | 32.74411 | 11008 ft | 384 kts | 127° |
| 2026-05-01 09:33 | 29.54475 | 32.76900 | 10998 ft | 384 kts | 127° |
| 2026-05-01 09:33 | 29.52873 | 32.79346 | 10998 ft | 385 kts | 127° |
| 2026-05-01 09:33 | 29.49638 | 32.84270 | 11000 ft | 385 kts | 127° |
| 2026-05-01 09:34 | 29.48026 | 32.86721 | 10999 ft | 385 kts | 127° |
| 2026-05-01 09:34 | 29.46437 | 32.89138 | 10999 ft | 385 kts | 127° |
| 2026-05-01 09:34 | 29.43306 | 32.93893 | 10998 ft | 357 kts | 127° |
| 2026-05-01 09:35 | 29.41832 | 32.96131 | 10984 ft | 348 kts | 127° |
| 2026-05-01 09:35 | 29.39013 | 33.00404 | 10715 ft | 326 kts | 127° |
| 2026-05-01 09:35 | 29.37644 | 33.02480 | 10411 ft | 325 kts | 127° |
| 2026-05-01 09:36 | 29.36279 | 33.04547 | 10110 ft | 324 kts | 127° |
| 2026-05-01 09:36 | 29.34945 | 33.06566 | 9816 ft | 322 kts | 127° |
| 2026-05-01 09:36 | 29.33582 | 33.08627 | 9513 ft | 321 kts | 127° |
| 2026-05-01 09:36 | 29.32241 | 33.10653 | 9214 ft | 319 kts | 127° |
| 2026-05-01 09:37 | 29.30904 | 33.12674 | 9011 ft | 315 kts | 127° |
| 2026-05-01 09:37 | 29.28233 | 33.16707 | 8999 ft | 318 kts | 127° |
| 2026-05-01 09:37 | 29.26876 | 33.18753 | 8999 ft | 318 kts | 127° |
| 2026-05-01 09:38 | 29.24210 | 33.22772 | 8999 ft | 318 kts | 127° |
| 2026-05-01 09:38 | 29.22868 | 33.24793 | 8999 ft | 318 kts | 127° |
| 2026-05-01 09:38 | 29.21517 | 33.26827 | 9005 ft | 324 kts | 127° |
| 2026-05-01 09:39 | 29.18581 | 33.31240 | 8999 ft | 370 kts | 127° |
| 2026-05-01 09:39 | 29.17000 | 33.33611 | 8991 ft | 373 kts | 127° |
| 2026-05-01 09:39 | 29.15424 | 33.35979 | 8997 ft | 372 kts | 127° |
| 2026-05-01 09:40 | 29.13870 | 33.38312 | 9003 ft | 372 kts | 127° |
| 2026-05-01 09:40 | 29.10729 | 33.43023 | 8999 ft | 372 kts | 127° |
| 2026-05-01 09:40 | 29.09137 | 33.45410 | 8999 ft | 372 kts | 127° |
| 2026-05-01 09:41 | 29.07576 | 33.47748 | 9000 ft | 372 kts | 127° |
| 2026-05-01 09:41 | 29.04442 | 33.52438 | 9000 ft | 372 kts | 127° |
| 2026-05-01 09:41 | 29.02855 | 33.54811 | 9000 ft | 373 kts | 127° |
| 2026-05-01 09:42 | 29.01285 | 33.57157 | 9000 ft | 373 kts | 127° |
| 2026-05-01 09:42 | 28.99693 | 33.59536 | 8999 ft | 373 kts | 127° |
| 2026-05-01 09:42 | 28.97073 | 33.63446 | 9000 ft | 373 kts | 127° |